Time;durP1;ratioP1;P1;durP2;ratioP2;P2;SDS_P1;SDS_P2;PMS_P1;PMS_P2;Temp;Humidity;BMP_temperature;BMP_pressure;BME280_temperature;BME280_humidity;BME280_pressure;Samples;Min_cycle;Max_cycle;Signal;HPM_P1;HPM_P2
2022/09/15 00:00:15;;;;;;;15.02;8.35;;;;;;;15.24;85.44;100647.50;4999847;28;20095;-79
2022/09/15 00:02:42;;;;;;;12.90;8.27;;;;;;;15.27;85.31;100647.47;5017546;28;20486;-80
2022/09/15 00:05:07;;;;;;;15.77;8.73;;;;;;;15.17;85.20;100635.19;5018055;28;20034;-80
2022/09/15 00:07:33;;;;;;;15.18;9.38;;;;;;;15.17;85.39;100642.31;5017484;28;20026;-80
2022/09/15 00:09:59;;;;;;;13.88;9.43;;;;;;;15.14;85.27;100637.88;5017090;28;20141;-80
2022/09/15 00:12:25;;;;;;;14.98;9.10;;;;;;;15.14;85.24;100640.53;5017381;28;20466;-80
2022/09/15 00:14:51;;;;;;;14.25;7.65;;;;;;;15.20;85.12;100640.50;5000488;28;20069;-80
2022/09/15 00:17:16;;;;;;;15.18;8.88;;;;;;;15.19;84.72;100638.69;5018048;28;20068;-79
2022/09/15 00:19:42;;;;;;;13.18;8.95;;;;;;;15.19;84.98;100637.81;4999888;28;20382;-80
2022/09/15 00:22:07;;;;;;;15.32;9.43;;;;;;;15.16;85.03;100640.50;4999384;28;20061;-80
2022/09/15 00:24:32;;;;;;;12.68;8.48;;;;;;;15.11;84.83;100640.56;5017697;28;20054;-80
2022/09/15 00:26:58;;;;;;;18.02;9.07;;;;;;;15.08;85.19;100640.63;5000217;28;20510;-80
2022/09/15 00:29:23;;;;;;;16.80;8.93;;;;;;;14.95;85.78;100625.69;5017230;28;20033;-80
2022/09/15 00:31:49;;;;;;;15.75;9.30;;;;;;;14.94;85.75;100629.22;5016960;28;20060;-80
2022/09/15 00:34:15;;;;;;;14.65;9.23;;;;;;;14.91;86.24;100623.97;4999312;28;20030;-79
2022/09/15 00:36:40;;;;;;;14.57;9.43;;;;;;;14.96;86.47;100622.13;5016819;28;20042;-79
2022/09/15 00:39:05;;;;;;;14.48;9.55;;;;;;;14.93;86.36;100615.03;5017070;28;20038;-80
2022/09/15 00:41:31;;;;;;;17.17;10.48;;;;;;;14.97;86.48;100616.78;5017025;28;20365;-80
2022/09/15 00:43:59;;;;;;;17.92;9.77;;;;;;;14.89;86.82;100613.31;4999747;28;20049;-79
2022/09/15 00:46:32;;;;;;;13.98;9.68;;;;;;;14.89;86.75;100628.41;5016724;28;20058;-80
2022/09/15 00:49:06;;;;;;;16.30;9.95;;;;;;;14.85;87.29;100622.22;4999347;28;20027;-80
2022/09/15 00:51:44;;;;;;;15.85;10.20;;;;;;;14.82;87.66;100619.63;5016586;28;20467;-80
2022/09/15 00:54:50;;;;;;;14.27;9.75;;;;;;;14.83;87.45;100618.72;5016519;28;20033;-80
2022/09/15 00:57:24;;;;;;;14.45;10.07;;;;;;;14.76;87.85;100615.22;4999026;28;20030;-79
2022/09/15 00:59:52;;;;;;;15.80;9.77;;;;;;;14.83;87.58;100621.38;5017031;28;20447;-80
2022/09/15 01:02:23;;;;;;;17.10;9.75;;;;;;;14.89;87.07;100621.28;5016434;28;20052;-79
2022/09/15 01:04:51;;;;;;;15.05;10.13;;;;;;;14.90;87.41;100623.09;5016376;28;20030;-81
2022/09/15 01:07:22;;;;;;;16.25;10.05;;;;;;;14.92;87.30;100621.28;5016609;28;20041;-79
2022/09/15 01:09:55;;;;;;;20.25;10.63;;;;;;;14.96;87.15;100627.44;4998756;28;20033;-79
2022/09/15 01:12:22;;;;;;;15.52;10.23;;;;;;;14.97;87.08;100643.38;5016022;28;20113;-80
2022/09/15 01:14:48;;;;;;;19.38;9.88;;;;;;;14.96;87.00;100635.44;5016203;28;20096;-80
2022/09/15 01:17:28;;;;;;;19.75;10.63;;;;;;;14.98;87.75;100629.19;5016292;28;20034;-80
2022/09/15 01:20:18;;;;;;;13.25;10.27;;;;;;;14.96;87.93;100632.78;5016309;28;20040;-79
2022/09/15 01:23:04;;;;;;;14.90;10.00;;;;;;;14.95;88.25;100641.66;5016662;28;20046;-80
2022/09/15 01:25:50;;;;;;;15.27;10.05;;;;;;;14.95;88.30;100641.66;5016595;28;20083;-80
2022/09/15 01:28:30;;;;;;;15.85;10.25;;;;;;;14.99;88.40;100635.41;5017977;28;20069;-80
2022/09/15 01:31:03;;;;;;;15.38;10.75;;;;;;;14.93;88.77;100632.78;5017354;28;20033;-81
2022/09/15 01:34:00;;;;;;;15.82;10.32;;;;;;;14.92;88.95;100620.41;5017989;28;20382;-80
2022/09/15 01:36:56;;;;;;;18.80;9.85;;;;;;;14.91;89.00;100616.84;5007097;28;20042;-80
2022/09/15 01:39:29;;;;;;;16.98;10.05;;;;;;;14.96;88.67;100627.44;5017039;28;20045;-80
2022/09/15 01:41:58;;;;;;;17.15;10.15;;;;;;;15.02;88.75;100624.72;5000638;28;20037;-80
2022/09/15 01:44:44;;;;;;;14.48;10.05;;;;;;;15.10;88.47;100627.28;5017747;28;20036;-80
2022/09/15 01:47:14;;;;;;;18.77;10.38;;;;;;;15.02;88.39;100617.59;5017211;28;20524;-80
2022/09/15 01:49:47;;;;;;;13.65;10.43;;;;;;;15.06;88.40;100623.78;5017783;28;20112;-80
2022/09/15 01:52:16;;;;;;;18.25;9.88;;;;;;;15.05;88.30;100630.00;5017440;28;20022;-80
2022/09/15 01:54:47;;;;;;;16.67;9.95;;;;;;;15.02;88.43;100628.25;5000417;28;20100;-80
2022/09/15 01:57:16;;;;;;;16.50;9.98;;;;;;;15.04;88.06;100622.94;5017339;28;20506;-80
2022/09/15 01:59:44;;;;;;;14.30;10.20;;;;;;;15.05;88.21;100626.47;5017301;28;20030;-80
2022/09/15 02:02:27;;;;;;;18.40;10.10;;;;;;;14.98;88.45;100617.66;5015354;28;20469;-80
2022/09/15 02:05:00;;;;;;;13.75;10.05;;;;;;;14.92;88.48;100623.94;4997745;28;20044;-80
2022/09/15 02:07:36;;;;;;;17.45;9.35;;;;;;;14.95;88.88;100625.69;5014643;28;20037;-81
2022/09/15 02:10:28;;;;;;;12.35;9.68;;;;;;;14.91;88.71;100619.53;5015932;28;20026;-81
2022/09/15 02:12:59;;;;;;;16.45;10.85;;;;;;;14.95;88.37;100618.59;5015453;28;20561;-81
2022/09/15 02:15:29;;;;;;;19.85;10.27;;;;;;;14.88;88.50;100621.31;5015358;28;20037;-80
2022/09/15 02:17:58;;;;;;;15.07;9.45;;;;;;;14.86;88.71;100616.03;5015314;28;20109;-80
2022/09/15 02:20:33;;;;;;;15.15;9.80;;;;;;;14.87;88.66;100623.09;5014590;28;20030;-80
2022/09/15 02:23:07;;;;;;;17.30;9.90;;;;;;;14.80;88.66;100617.88;5015122;28;20073;-81
2022/09/15 02:25:56;;;;;;;16.02;10.35;;;;;;;14.82;89.25;100622.28;5014942;28;20499;-81
2022/09/15 02:28:27;;;;;;;16.63;9.95;;;;;;;14.78;88.99;100613.44;5014780;28;20033;-81
2022/09/15 02:30:56;;;;;;;15.77;9.55;;;;;;;14.85;88.66;100613.38;5015952;28;20534;-81
2022/09/15 02:33:24;;;;;;;13.20;9.95;;;;;;;14.92;88.42;100623.94;4997962;28;20029;-81
2022/09/15 02:35:51;;;;;;;18.08;9.88;;;;;;;14.94;87.90;100621.25;4997566;28;20033;-80
2022/09/15 02:38:16;;;;;;;13.07;9.02;;;;;;;14.95;87.72;100617.72;5014962;28;20041;-80
2022/09/15 02:40:43;;;;;;;16.45;9.45;;;;;;;14.91;87.45;100602.69;5014606;28;20026;-80
2022/09/15 02:43:15;;;;;;;13.77;9.65;;;;;;;14.89;87.34;100607.13;5014643;28;20029;-80
2022/09/15 02:45:41;;;;;;;15.73;9.45;;;;;;;14.92;86.95;100615.06;5014851;28;20026;-80
2022/09/15 02:48:10;;;;;;;16.20;9.52;;;;;;;14.90;86.70;100623.09;5014445;28;20367;-80
2022/09/15 02:50:36;;;;;;;15.73;9.85;;;;;;;14.85;86.64;100622.22;4997367;28;20077;-80
2022/09/15 02:53:02;;;;;;;16.02;9.02;;;;;;;14.79;86.77;100622.31;5014696;28;20160;-80
2022/09/15 02:55:28;;;;;;;14.05;9.13;;;;;;;14.78;87.02;100626.75;5014371;28;20034;-80
2022/09/15 02:57:57;;;;;;;18.33;9.63;;;;;;;14.74;86.96;100621.47;5014859;28;20046;-80
2022/09/15 03:00:23;;;;;;;11.63;7.85;;;;;;;14.74;86.67;100621.47;5014483;28;20041;-80
2022/09/15 03:02:51;;;;;;;14.10;9.07;;;;;;;14.69;86.85;100626.84;4997188;28;20425;-81
2022/09/15 03:05:19;;;;;;;15.93;9.32;;;;;;;14.65;86.71;100616.25;5014266;28;20036;-81
2022/09/15 03:07:45;;;;;;;15.35;9.35;;;;;;;14.61;86.97;100626.03;4996594;28;20050;-80
2022/09/15 03:10:12;;;;;;;14.65;9.85;;;;;;;14.61;87.13;100618.06;5013797;28;20426;-81
2022/09/15 03:12:57;;;;;;;13.32;9.23;;;;;;;14.62;86.69;100622.47;5013887;28;20501;-80
2022/09/15 03:15:24;;;;;;;15.35;9.60;;;;;;;14.51;86.45;100619.88;5014488;28;20080;-80
2022/09/15 03:17:51;;;;;;;18.88;9.02;;;;;;;14.47;86.74;100634.09;5013678;28;20462;-80
2022/09/15 03:20:19;;;;;;;14.48;8.70;;;;;;;14.40;86.88;100635.03;4995805;28;20038;-80
2022/09/15 03:22:44;;;;;;;15.32;9.45;;;;;;;14.27;87.68;100636.03;5014032;28;20041;-81
2022/09/15 03:25:10;;;;;;;13.60;9.07;;;;;;;14.19;87.57;100636.09;5014372;28;20030;-80
2022/09/15 03:27:36;;;;;;;16.25;9.38;;;;;;;14.23;88.47;100645.81;5014022;28;20482;-80
2022/09/15 03:30:03;;;;;;;17.33;10.23;;;;;;;14.17;88.30;100645.81;5013905;28;20037;-80
2022/09/15 03:32:28;;;;;;;16.17;10.23;;;;;;;14.18;88.54;100655.59;4996157;28;20034;-81
2022/09/15 03:34:54;;;;;;;17.85;10.00;;;;;;;14.21;88.51;100665.28;5013906;28;20029;-81
2022/09/15 03:37:19;;;;;;;16.40;11.15;;;;;;;14.28;88.50;100659.94;5013855;28;20032;-81
2022/09/15 03:39:46;;;;;;;15.30;9.70;;;;;;;14.35;88.54;100662.56;4996475;28;20037;-80
2022/09/15 03:42:12;;;;;;;17.55;10.07;;;;;;;14.35;88.42;100668.75;5013557;28;20037;-80
2022/09/15 03:44:38;;;;;;;18.30;9.77;;;;;;;14.33;88.66;100656.34;5013817;28;20458;-80
2022/09/15 03:47:04;;;;;;;15.55;10.18;;;;;;;14.40;88.68;100658.09;5013783;28;20056;-80
2022/09/15 03:49:29;;;;;;;15.27;9.82;;;;;;;14.44;88.54;100659.81;4995952;28;20034;-80
2022/09/15 03:51:55;;;;;;;14.23;10.30;;;;;;;14.48;88.73;100659.81;5014245;28;20061;-80
2022/09/15 03:54:20;;;;;;;15.50;10.50;;;;;;;14.49;88.59;100661.56;5014266;28;20108;-81
2022/09/15 03:56:47;;;;;;;13.30;9.82;;;;;;;14.52;88.72;100669.53;5013731;28;20061;-80
2022/09/15 03:59:15;;;;;;;15.35;9.70;;;;;;;14.50;89.00;100663.34;4996739;28;20038;-80
2022/09/15 04:01:40;;;;;;;18.30;10.15;;;;;;;14.53;88.94;100658.00;4995984;28;20065;-80
2022/09/15 04:04:06;;;;;;;14.90;10.27;;;;;;;14.52;89.22;100661.56;5013583;28;20065;-80
2022/09/15 04:06:31;;;;;;;15.48;9.50;;;;;;;14.53;89.35;100655.34;5013624;28;20117;-80
2022/09/15 04:08:58;;;;;;;13.68;9.32;;;;;;;14.59;88.86;100650.84;5013575;28;20062;-80
2022/09/15 04:11:24;;;;;;;16.83;9.15;;;;;;;14.62;88.84;100653.50;5014017;28;20430;-81
2022/09/15 04:13:52;;;;;;;14.10;9.90;;;;;;;14.62;88.97;100650.84;5013547;28;20125;-82
2022/09/15 04:16:23;;;;;;;14.70;9.52;;;;;;;14.62;88.64;100648.19;5013490;28;20033;-81
2022/09/15 04:18:50;;;;;;;13.25;9.35;;;;;;;14.62;88.82;100657.03;5013275;28;20041;-82
2022/09/15 04:21:20;;;;;;;13.15;9.45;;;;;;;14.62;89.29;100650.84;5013543;28;20488;-80
2022/09/15 04:23:46;;;;;;;16.20;9.98;;;;;;;14.63;88.55;100649.94;5013354;28;20049;-80
2022/09/15 04:26:20;;;;;;;16.60;10.15;;;;;;;14.65;88.45;100659.69;5013471;28;20030;-80
2022/09/15 04:28:46;;;;;;;16.90;9.52;;;;;;;14.69;88.24;100649.91;5013065;28;20033;-80
2022/09/15 04:31:13;;;;;;;15.13;9.82;;;;;;;14.72;87.82;100652.50;5015945;28;20034;-80
2022/09/15 04:33:40;;;;;;;11.73;9.45;;;;;;;14.67;88.00;100646.34;5016980;28;20034;-81
2022/09/15 04:36:12;;;;;;;16.88;10.02;;;;;;;14.70;88.32;100646.34;5016887;28;20164;-80
2022/09/15 04:38:38;;;;;;;15.20;9.82;;;;;;;14.73;88.11;100651.59;5017585;28;20095;-80
2022/09/15 04:41:04;;;;;;;13.73;10.15;;;;;;;14.73;88.03;100646.28;5016514;28;20542;-81
2022/09/15 04:43:30;;;;;;;14.07;9.45;;;;;;;14.75;87.49;100650.72;5016800;28;20033;-81
2022/09/15 04:45:56;;;;;;;15.63;9.73;;;;;;;14.76;87.94;100655.13;4999392;28;20025;-80
2022/09/15 04:48:22;;;;;;;15.05;10.00;;;;;;;14.83;87.60;100655.09;5016651;28;20037;-80
2022/09/15 04:50:48;;;;;;;13.90;10.02;;;;;;;14.85;87.45;100661.25;5016619;28;20040;-81
2022/09/15 04:53:14;;;;;;;13.43;9.38;;;;;;;14.85;87.67;100663.91;5016639;28;20666;-79
2022/09/15 04:55:39;;;;;;;17.80;9.20;;;;;;;14.83;87.47;100655.97;5016524;28;20061;-82
2022/09/15 04:58:05;;;;;;;14.95;9.52;;;;;;;14.87;87.49;100664.78;5016723;28;20142;-80
2022/09/15 05:00:33;;;;;;;17.48;10.05;;;;;;;14.84;87.33;100652.41;5016452;28;20168;-81
2022/09/15 05:02:59;;;;;;;12.10;8.88;;;;;;;14.87;87.42;100655.03;5017162;28;20042;-80
2022/09/15 05:05:25;;;;;;;14.48;9.32;;;;;;;14.83;87.14;100650.63;4998802;28;20037;-81
2022/09/15 05:07:51;;;;;;;16.20;9.38;;;;;;;14.88;87.31;100663.91;5016099;28;20474;-81
2022/09/15 05:10:18;;;;;;;16.33;9.38;;;;;;;14.88;87.07;100653.25;4982521;28;20374;-80
2022/09/15 05:12:43;;;;;;;17.35;9.60;;;;;;;14.82;86.75;100648.88;4998836;28;20044;-81
2022/09/15 05:15:09;;;;;;;13.80;9.30;;;;;;;14.82;87.18;100655.94;5016747;28;20033;-80
2022/09/15 05:17:34;;;;;;;15.60;9.43;;;;;;;14.71;87.27;100653.41;5016087;28;20033;-80
2022/09/15 05:20:00;;;;;;;17.98;9.45;;;;;;;14.69;87.59;100656.09;4998260;28;20065;-80
2022/09/15 05:22:27;;;;;;;15.77;9.18;;;;;;;14.69;87.41;100652.56;4998439;28;20485;-80
2022/09/15 05:24:53;;;;;;;11.85;9.05;;;;;;;14.66;87.84;100649.91;5015800;28;20520;-80
2022/09/15 05:27:18;;;;;;;16.67;9.82;;;;;;;14.70;88.03;100654.31;5015725;28;20046;-81
2022/09/15 05:29:44;;;;;;;16.90;9.65;;;;;;;14.71;87.73;100659.59;5015606;28;20125;-80
2022/09/15 05:32:09;;;;;;;17.73;9.00;;;;;;;14.71;87.75;100662.28;5015595;28;20537;-80
2022/09/15 05:34:35;;;;;;;17.00;9.57;;;;;;;14.81;87.69;100662.19;5016104;28;20144;-80
2022/09/15 05:37:01;;;;;;;11.43;8.95;;;;;;;14.86;87.37;100666.56;5015571;28;20033;-80
2022/09/15 05:39:27;;;;;;;14.93;9.73;;;;;;;14.83;87.07;100665.72;5015765;28;20467;-80
2022/09/15 05:41:52;;;;;;;16.98;9.93;;;;;;;14.84;87.01;100665.69;5014794;28;20038;-81
2022/09/15 05:44:20;;;;;;;15.15;9.70;;;;;;;14.87;87.09;100667.47;5015407;28;20072;-80
2022/09/15 05:46:46;;;;;;;15.60;10.27;;;;;;;14.85;87.02;100675.44;4998702;28;20034;-80
2022/09/15 05:49:11;;;;;;;15.45;10.50;;;;;;;14.89;86.91;100678.94;5015545;28;20057;-80
2022/09/15 05:51:36;;;;;;;15.43;9.70;;;;;;;14.91;87.20;100680.72;5015265;28;20400;-80
2022/09/15 05:54:02;;;;;;;14.70;9.77;;;;;;;14.92;86.96;100674.50;4997911;28;20034;-80
2022/09/15 05:56:27;;;;;;;15.45;9.63;;;;;;;14.96;86.97;100684.19;4997874;28;20030;-80
2022/09/15 05:58:53;;;;;;;13.50;10.45;;;;;;;14.98;87.30;100682.41;5015352;28;20041;-80
2022/09/15 06:01:23;;;;;;;15.32;10.32;;;;;;;15.00;87.06;100688.59;5015100;28;20072;-81
2022/09/15 06:03:49;;;;;;;14.98;10.55;;;;;;;15.04;87.14;100692.13;4998260;28;20025;-81
2022/09/15 06:06:15;;;;;;;15.70;11.02;;;;;;;15.11;87.16;100692.91;5015225;28;20032;-79
2022/09/15 06:08:43;;;;;;;14.23;10.98;;;;;;;15.11;86.97;100696.47;5015354;28;20033;-81
2022/09/15 06:11:16;;;;;;;17.15;10.27;;;;;;;15.12;87.18;100698.25;5015165;28;20041;-80
2022/09/15 06:13:42;;;;;;;21.80;10.85;;;;;;;15.08;87.30;100693.84;4997537;28;20477;-81
2022/09/15 06:16:13;;;;;;;15.00;10.05;;;;;;;15.10;87.41;100697.38;5015354;28;20066;-80
2022/09/15 06:18:40;;;;;;;15.27;10.43;;;;;;;15.12;87.22;100695.59;5014744;28;20026;-80
2022/09/15 06:21:11;;;;;;;19.25;10.40;;;;;;;15.15;87.22;100710.63;4981362;28;20034;-81
2022/09/15 06:23:37;;;;;;;14.10;10.10;;;;;;;15.16;87.12;100707.97;5015076;28;20046;-80
2022/09/15 06:26:13;;;;;;;15.95;11.00;;;;;;;15.13;87.54;100715.09;4997086;28;20389;-80
2022/09/15 06:28:43;;;;;;;14.18;10.70;;;;;;;15.15;87.93;100715.94;5015031;28;20029;-80
2022/09/15 06:31:10;;;;;;;17.88;11.02;;;;;;;15.08;87.70;100712.47;4997091;28;20129;-80
2022/09/15 06:33:36;;;;;;;18.20;10.40;;;;;;;15.03;88.37;100706.28;5014653;28;20034;-80
2022/09/15 06:36:02;;;;;;;16.65;10.88;;;;;;;15.06;88.83;100718.69;5015229;28;20037;-80
2022/09/15 06:38:28;;;;;;;17.98;11.10;;;;;;;15.00;89.36;100709.88;5014850;28;20068;-80
2022/09/15 06:40:55;;;;;;;13.77;10.45;;;;;;;15.06;88.73;100719.59;5014298;28;20441;-80
2022/09/15 06:43:21;;;;;;;19.20;11.52;;;;;;;15.13;88.90;100720.41;5014897;28;20109;-80
2022/09/15 06:45:46;;;;;;;19.35;12.35;;;;;;;15.20;88.74;100727.41;5014600;28;20112;-80
2022/09/15 06:48:11;;;;;;;20.08;11.65;;;;;;;15.24;87.99;100722.03;5014419;28;20034;-81
2022/09/15 06:50:37;;;;;;;17.20;13.27;;;;;;;15.22;88.46;100722.97;5014484;28;20034;-80
2022/09/15 06:53:02;;;;;;;20.67;14.80;;;;;;;15.27;88.82;100731.78;5014245;28;20034;-80
2022/09/15 06:55:28;;;;;;;19.73;14.43;;;;;;;15.28;88.46;100726.44;5014374;28;20037;-80
2022/09/15 06:57:53;;;;;;;21.60;15.05;;;;;;;15.27;88.64;100735.34;5014387;28;20458;-78
2022/09/15 07:00:19;;;;;;;27.60;16.58;;;;;;;15.25;88.74;100744.25;5014037;28;20042;-78
2022/09/15 07:02:48;;;;;;;20.52;15.57;;;;;;;15.26;89.09;100746.88;5014260;28;20034;-78
2022/09/15 07:05:14;;;;;;;24.15;15.52;;;;;;;15.31;89.31;100748.63;4980184;28;20022;-78
2022/09/15 07:07:39;;;;;;;20.40;15.18;;;;;;;15.47;89.52;100750.22;4980966;28;20218;-79
2022/09/15 07:10:05;;;;;;;19.25;12.88;;;;;;;15.53;88.57;100751.03;5014138;28;20468;-78
2022/09/15 07:12:31;;;;;;;18.35;11.07;;;;;;;15.65;88.13;100760.72;5013771;28;20148;-80
2022/09/15 07:14:56;;;;;;;18.48;11.00;;;;;;;15.74;87.79;100754.38;5014648;28;20030;-77
2022/09/15 07:17:22;;;;;;;17.05;10.73;;;;;;;15.80;87.61;100759.63;5014089;28;20092;-78
2022/09/15 07:19:48;;;;;;;12.60;9.48;;;;;;;15.84;87.17;100753.38;4996432;28;20040;-79
2022/09/15 07:22:13;;;;;;;13.80;9.10;;;;;;;15.92;86.49;100762.16;4996170;28;20128;-78
2022/09/15 07:24:38;;;;;;;14.48;9.40;;;;;;;15.96;86.98;100761.22;5013811;28;20056;-77
2022/09/15 07:27:04;;;;;;;14.23;10.00;;;;;;;16.07;87.24;100766.41;4996694;28;20446;-77
2022/09/15 07:29:29;;;;;;;15.13;10.02;;;;;;;16.14;86.80;100767.19;5013926;28;20030;-76
2022/09/15 07:31:54;;;;;;;12.73;8.77;;;;;;;16.20;86.20;100767.13;5013907;28;20026;-77
2022/09/15 07:34:20;;;;;;;12.82;8.90;;;;;;;16.21;86.12;100764.44;4996537;28;20057;-79
2022/09/15 07:36:45;;;;;;;16.52;9.38;;;;;;;16.27;86.51;100768.78;5013660;28;20173;-77
2022/09/15 07:39:10;;;;;;;11.63;8.15;;;;;;;16.25;85.11;100763.50;5014164;28;20455;-76
2022/09/15 07:41:37;;;;;;;13.00;7.82;;;;;;;16.26;85.13;100767.91;5014416;28;20131;-77
2022/09/15 07:44:05;;;;;;;15.02;7.90;;;;;;;16.27;84.22;100771.47;4996331;28;20466;-78
2022/09/15 07:46:31;;;;;;;13.63;7.78;;;;;;;16.29;84.41;100775.00;5013456;28;20489;-78
2022/09/15 07:48:58;;;;;;;10.65;6.90;;;;;;;16.31;84.44;100777.63;5013677;28;20030;-78
2022/09/15 07:51:24;;;;;;;13.60;7.00;;;;;;;16.34;84.87;100778.47;4996073;28;20113;-78
2022/09/15 07:53:50;;;;;;;11.50;7.25;;;;;;;16.35;84.71;100780.25;4996346;28;20061;-78
2022/09/15 07:56:19;;;;;;;11.30;7.13;;;;;;;16.45;84.75;100783.69;4996134;28;20398;-78
2022/09/15 07:58:46;;;;;;;13.32;7.30;;;;;;;16.47;84.55;100780.06;4996056;28;20417;-78
2022/09/15 08:01:13;;;;;;;12.88;6.75;;;;;;;16.53;84.24;100790.66;5013887;28;20036;-77
2022/09/15 08:03:44;;;;;;;15.55;6.95;;;;;;;16.50;83.84;100793.38;5013327;28;20445;-78
2022/09/15 08:06:10;;;;;;;12.70;6.65;;;;;;;16.52;84.31;100798.66;5016301;28;20113;-78
2022/09/15 08:08:40;;;;;;;14.13;6.45;;;;;;;16.52;84.54;100799.53;5017373;28;20034;-78
2022/09/15 08:11:07;;;;;;;12.40;6.50;;;;;;;16.54;82.99;100796.88;5017731;28;20030;-78
2022/09/15 08:13:33;;;;;;;12.00;6.30;;;;;;;16.56;82.61;100804.84;5017575;28;20069;-78
2022/09/15 08:16:13;;;;;;;10.57;5.80;;;;;;;16.61;83.03;100798.53;5017310;28;20458;-78
2022/09/15 08:18:43;;;;;;;14.40;5.68;;;;;;;16.66;82.39;100807.38;5016964;28;20540;-78
2022/09/15 08:21:12;;;;;;;13.95;6.30;;;;;;;16.69;82.13;100804.63;5017197;28;20029;-76
2022/09/15 08:23:38;;;;;;;13.65;6.22;;;;;;;16.72;81.33;100801.97;5017262;28;20054;-75
2022/09/15 08:26:09;;;;;;;12.80;6.47;;;;;;;16.82;81.95;100804.50;5017107;28;20359;-76
2022/09/15 08:28:35;;;;;;;14.38;6.50;;;;;;;16.91;81.33;100810.56;5017495;28;20030;-75
2022/09/15 08:31:03;;;;;;;11.13;5.97;;;;;;;16.94;81.66;100796.28;5016870;28;20037;-76
2022/09/15 08:33:29;;;;;;;14.55;5.93;;;;;;;17.01;83.01;100801.50;5016963;28;20459;-76
2022/09/15 08:35:59;;;;;;;17.27;6.00;;;;;;;17.10;80.53;100802.28;5017149;28;20040;-76
2022/09/15 08:38:25;;;;;;;16.10;5.35;;;;;;;17.11;79.48;100812.03;5017149;28;20025;-74
2022/09/15 08:41:00;;;;;;;13.15;5.18;;;;;;;17.15;80.67;100811.97;5016883;28;20425;-81
2022/09/15 08:43:32;;;;;;;16.85;7.00;;;;;;;17.18;81.12;100816.38;5017173;28;20030;-76
2022/09/15 08:46:12;;;;;;;14.65;6.40;;;;;;;17.17;79.98;100810.16;5016571;28;20541;-77
2022/09/15 08:48:46;;;;;;;13.65;6.57;;;;;;;17.18;80.55;100816.38;5017172;28;20061;-77
2022/09/15 08:51:22;;;;;;;11.70;5.93;;;;;;;17.15;79.31;100809.28;5017323;28;20057;-78
2022/09/15 08:54:02;;;;;;;10.20;5.88;;;;;;;17.11;78.94;100820.03;5017450;28;20026;-77
2022/09/15 08:56:29;;;;;;;9.05;5.80;;;;;;;17.11;79.11;100822.72;5016608;28;20109;-76
2022/09/15 08:58:54;;;;;;;11.80;5.30;;;;;;;17.09;78.59;100828.09;5016538;28;20042;-77
2022/09/15 09:01:46;;;;;;;9.13;4.97;;;;;;;17.13;79.03;100832.47;5016452;28;20049;-76
2022/09/15 09:04:46;;;;;;;10.60;5.50;;;;;;;17.19;79.54;100832.34;5017031;28;20030;-77
2022/09/15 09:07:20;;;;;;;11.00;5.60;;;;;;;17.31;78.68;100841.09;5016997;28;20176;-77
2022/09/15 09:10:00;;;;;;;10.70;5.80;;;;;;;17.46;78.56;100841.69;5016365;28;20108;-76
2022/09/15 09:12:40;;;;;;;15.40;5.88;;;;;;;17.60;79.29;100848.56;5016672;28;20032;-77
2022/09/15 09:15:14;;;;;;;10.02;5.57;;;;;;;17.65;78.57;100844.03;5016532;28;20026;-77
2022/09/15 09:17:45;;;;;;;8.57;5.20;;;;;;;17.67;77.61;100851.09;5016108;28;20026;-76
2022/09/15 09:20:32;;;;;;;12.20;5.20;;;;;;;17.68;77.58;100850.19;4998798;28;20025;-79
2022/09/15 09:23:01;;;;;;;11.20;5.63;;;;;;;17.65;76.58;100850.25;5016203;28;20046;-80
2022/09/15 09:25:26;;;;;;;8.65;5.10;;;;;;;17.64;75.90;100850.28;5016901;28;20053;-78
2022/09/15 09:27:53;;;;;;;12.63;5.00;;;;;;;17.56;76.03;100852.19;5015752;28;20467;-77
2022/09/15 09:30:21;;;;;;;6.97;4.60;;;;;;;17.52;74.68;100848.72;5015942;28;20029;-78
2022/09/15 09:32:56;;;;;;;10.52;6.05;;;;;;;17.52;76.60;100852.28;4998681;28;20038;-77
2022/09/15 09:35:30;;;;;;;8.90;5.00;;;;;;;17.51;76.20;100853.19;5016376;28;20057;-77
2022/09/15 09:37:56;;;;;;;9.60;5.28;;;;;;;17.51;75.31;100857.63;5016095;28;20116;-78
2022/09/15 09:40:22;;;;;;;9.70;5.18;;;;;;;17.47;74.99;100864.84;5016333;28;20125;-77
2022/09/15 09:42:47;;;;;;;13.80;5.18;;;;;;;17.41;75.74;100861.38;5015453;28;20041;-77
2022/09/15 09:45:15;;;;;;;12.70;5.70;;;;;;;17.36;76.34;100858.78;4998256;28;20061;-78
2022/09/15 09:47:41;;;;;;;13.82;5.43;;;;;;;17.36;76.20;100864.13;5015633;28;20116;-77
2022/09/15 09:50:33;;;;;;;9.25;5.35;;;;;;;17.37;77.10;100860.53;5015136;28;20085;-79
2022/09/15 09:52:59;;;;;;;10.48;5.55;;;;;;;17.35;76.54;100856.16;5015566;28;20072;-77
2022/09/15 09:55:26;;;;;;;11.70;5.55;;;;;;;17.31;76.94;100863.31;4997993;28;20041;-77
2022/09/15 09:57:53;;;;;;;11.82;6.20;;;;;;;17.28;77.60;100860.69;5015700;28;20108;-77
2022/09/15 10:00:36;;;;;;;11.40;5.65;;;;;;;17.26;78.20;100878.56;5014190;28;20034;-77
2022/09/15 10:03:27;;;;;;;9.70;5.95;;;;;;;17.19;78.87;100872.41;5015443;28;20037;-76
2022/09/15 10:06:06;;;;;;;12.23;6.10;;;;;;;17.12;80.53;100864.53;5012399;28;20589;-76
2022/09/15 10:08:32;;;;;;;16.25;6.68;;;;;;;17.13;81.06;100867.19;5014928;28;20033;-75
2022/09/15 10:11:02;;;;;;;11.45;5.63;;;;;;;17.12;79.85;100860.06;5015303;28;20041;-75
2022/09/15 10:13:28;;;;;;;10.77;5.80;;;;;;;17.14;81.11;100879.63;5017297;28;20041;-75
2022/09/15 10:15:58;;;;;;;9.52;5.18;;;;;;;17.19;81.18;100879.53;5015683;28;20037;-74
2022/09/15 10:18:31;;;;;;;11.68;5.57;;;;;;;17.22;81.47;100877.72;5015961;28;20040;-74
2022/09/15 10:20:58;;;;;;;12.52;5.95;;;;;;;17.21;80.01;100880.38;5016177;28;20026;-75
2022/09/15 10:23:26;;;;;;;12.15;5.57;;;;;;;17.27;80.73;100867.84;5016693;28;20084;-75
2022/09/15 10:26:16;;;;;;;8.43;5.82;;;;;;;17.29;81.33;100857.13;5015824;28;20108;-74
2022/09/15 10:28:43;;;;;;;12.52;6.88;;;;;;;17.35;80.43;100858.81;5015886;28;20442;-74
2022/09/15 10:31:09;;;;;;;14.55;7.18;;;;;;;17.33;79.67;100852.59;5015629;28;20033;-75
2022/09/15 10:33:46;;;;;;;13.05;7.55;;;;;;;17.39;80.23;100857.88;5015040;28;20068;-74
2022/09/15 10:36:16;;;;;;;16.55;7.80;;;;;;;17.42;81.65;100844.44;5015691;28;20037;-76
2022/09/15 10:38:45;;;;;;;14.80;7.43;;;;;;;17.49;83.08;100846.09;5016309;28;20038;-76
2022/09/15 10:41:24;;;;;;;14.20;6.68;;;;;;;17.63;80.20;100853.84;5016161;28;20068;-75
2022/09/15 10:43:55;;;;;;;9.88;6.13;;;;;;;17.68;81.21;100854.66;5016215;28;20030;-77
2022/09/15 10:46:25;;;;;;;11.73;5.18;;;;;;;17.73;78.83;100860.81;5015743;28;20030;-76
2022/09/15 10:48:51;;;;;;;10.90;4.40;;;;;;;17.70;77.01;100867.09;5016467;28;20030;-76
2022/09/15 10:51:16;;;;;;;12.90;3.85;;;;;;;17.69;76.76;100878.69;5016379;28;20033;-76
2022/09/15 10:53:47;;;;;;;9.57;3.40;;;;;;;17.61;76.79;100880.63;5015537;28;20434;-75
2022/09/15 10:56:28;;;;;;;11.20;3.15;;;;;;;17.43;76.16;100889.84;5015328;28;20111;-76
2022/09/15 10:59:35;;;;;;;7.45;2.70;;;;;;;17.28;76.64;100893.63;5015722;28;20088;-75
2022/09/15 11:02:36;;;;;;;7.18;2.40;;;;;;;17.10;76.70;100893.06;5006743;28;20045;-74
2022/09/15 11:05:22;;;;;;;6.63;2.20;;;;;;;16.89;76.88;100895.13;5015247;28;20061;-74
2022/09/15 11:08:09;;;;;;;5.63;2.30;;;;;;;16.91;77.43;100887.97;5014739;28;20462;-74
2022/09/15 11:10:55;;;;;;;8.70;2.10;;;;;;;16.90;77.21;100890.66;5014488;28;20033;-75
2022/09/15 11:13:51;;;;;;;5.97;2.17;;;;;;;17.04;77.63;100891.34;5014292;28;20488;-75
2022/09/15 11:16:29;;;;;;;7.25;2.20;;;;;;;17.18;77.43;100884.00;5014129;28;20386;-75
2022/09/15 11:18:58;;;;;;;4.57;1.90;;;;;;;17.37;75.72;100871.22;5014395;28;20042;-75
2022/09/15 11:21:41;;;;;;;4.70;1.90;;;;;;;17.87;74.84;100871.28;5013871;28;20029;-75
2022/09/15 11:24:39;;;;;;;7.18;1.98;;;;;;;18.46;74.46;100869.19;5014769;28;20058;-75
2022/09/15 11:27:22;;;;;;;4.97;1.77;;;;;;;19.18;70.79;100871.13;5014577;28;20044;-76
2022/09/15 11:30:14;;;;;;;4.70;1.58;;;;;;;19.49;67.95;100865.91;5013869;28;20374;-76